createdAt,value
2022-08-04T00:02:09.641Z,97197.47
2022-08-04T00:04:46.018Z,97189.53
2022-08-04T00:07:20.247Z,97195.09
2022-08-04T00:10:09.994Z,97194.47
2022-08-04T00:12:42.960Z,97193.16
2022-08-04T00:15:15.055Z,97194.72
2022-08-04T00:17:47.770Z,97192.78
2022-08-04T00:20:21.480Z,97189.31
2022-08-04T00:22:53.370Z,97207.59
2022-08-04T00:25:21.342Z,97201.94
2022-08-04T00:27:50.104Z,97200.63
2022-08-04T00:30:18.362Z,97205.28
2022-08-04T00:32:46.877Z,97201.44
2022-08-04T00:35:15.976Z,97197.84
2022-08-04T00:37:46.183Z,97198.06
2022-08-04T00:40:25.751Z,97195.19
2022-08-04T00:43:10.181Z,97191.84
2022-08-04T00:46:18.612Z,97192.91
2022-08-04T00:48:57.964Z,97195.50
2022-08-04T00:51:39.133Z,97198.75
2022-08-04T00:54:13.754Z,97201.63
2022-08-04T00:57:03.834Z,97205.72
2022-08-04T00:59:52.342Z,97204.16
2022-08-04T01:02:29.919Z,97203.53
2022-08-04T01:05:05.647Z,97209.06
2022-08-04T01:07:58.457Z,97205.78
2022-08-04T01:10:39.025Z,97215.34
2022-08-04T01:13:26.870Z,97212.25
2022-08-04T01:16:00.825Z,97211.69
2022-08-04T01:18:37.046Z,97206.09
2022-08-04T01:21:24.005Z,97202.56
2022-08-04T01:24:13.909Z,97209.19
2022-08-04T01:26:57.791Z,97204.50
2022-08-04T01:29:46.422Z,97203.44
2022-08-04T01:32:25.635Z,97203.06
2022-08-04T01:35:02.355Z,97208.19
2022-08-04T01:37:50.313Z,97212.75
2022-08-04T01:40:18.837Z,97213.22
2022-08-04T01:42:47.492Z,97209.38
2022-08-04T01:45:17.092Z,97215.06
2022-08-04T01:47:51.873Z,97208.63
2022-08-04T01:50:20.765Z,97209.00
2022-08-04T01:52:51.330Z,97218.13
2022-08-04T01:55:19.944Z,97213.78
2022-08-04T01:57:49.855Z,97210.63
2022-08-04T02:00:21.445Z,97213.56
2022-08-04T02:02:50.402Z,97210.31
2022-08-04T02:05:21.258Z,97211.72
2022-08-04T02:08:01.603Z,97211.00
2022-08-04T02:10:31.921Z,97209.78
2022-08-04T02:13:12.107Z,97209.78
2022-08-04T02:15:54.552Z,97207.13
2022-08-04T02:18:26.050Z,97205.22
2022-08-04T02:20:59.213Z,97205.47
2022-08-04T02:23:32.502Z,97202.81
2022-08-04T02:26:03.712Z,97207.59
2022-08-04T02:28:36.537Z,97208.09
2022-08-04T02:31:29.409Z,97207.31
2022-08-04T02:34:07.342Z,97197.94
2022-08-04T02:36:38.578Z,97201.47
2022-08-04T02:39:08.267Z,97198.53
2022-08-04T02:41:37.307Z,97195.66
2022-08-04T02:44:07.910Z,97191.78
2022-08-04T02:46:38.706Z,97197.97
2022-08-04T02:49:09.353Z,97195.16
2022-08-04T02:51:39.436Z,97188.78
2022-08-04T02:54:08.685Z,97188.78
2022-08-04T02:56:38.953Z,97196.03
2022-08-04T02:59:10.615Z,97195.50
2022-08-04T03:01:56.815Z,97194.31
2022-08-04T03:04:42.778Z,97200.03
2022-08-04T03:07:59.323Z,97192.72
2022-08-04T03:10:56.262Z,97193.25
2022-08-04T03:13:41.485Z,97188.16
2022-08-04T03:16:38.706Z,97193.72
2022-08-04T03:19:49.604Z,97193.44
2022-08-04T03:23:13.363Z,97196.69
2022-08-04T03:26:04.267Z,97193.94
2022-08-04T03:29:35.196Z,97194.50
2022-08-04T03:32:53.426Z,97192.19
2022-08-04T03:35:46.113Z,97196.66
2022-08-04T03:38:41.373Z,97195.81
2022-08-04T03:41:54.927Z,97205.44
2022-08-04T03:44:47.477Z,97194.88
2022-08-04T03:47:29.672Z,97192.84
2022-08-04T03:50:29.038Z,97198.00
2022-08-04T03:53:23.880Z,97200.69
2022-08-04T03:56:35.975Z,97198.88
2022-08-04T03:59:33.799Z,97194.78
2022-08-04T04:02:21.962Z,97191.16
2022-08-04T04:05:17.008Z,97198.25
2022-08-04T04:08:19.423Z,97196.66
2022-08-04T04:11:19.239Z,97195.69
2022-08-04T04:14:07.524Z,97197.13
2022-08-04T04:17:05.612Z,97197.84
2022-08-04T04:20:01.340Z,97194.97
2022-08-04T04:22:46.292Z,97195.22
2022-08-04T04:25:26.090Z,97195.41
2022-08-04T04:28:45.865Z,97189.06
2022-08-04T04:31:36.182Z,97192.53
2022-08-04T04:34:13.527Z,97197.00
2022-08-04T04:36:53.667Z,97199.63
2022-08-04T04:39:32.321Z,97201.41
2022-08-04T04:42:37.339Z,97200.78
2022-08-04T04:45:19.447Z,97204.50
2022-08-04T04:48:08.662Z,97208.34
2022-08-04T04:50:53.219Z,97203.50
2022-08-04T04:53:28.604Z,97201.78
2022-08-04T04:56:04.822Z,97203.75
2022-08-04T04:58:35.282Z,97204.69
2022-08-04T05:01:31.410Z,97212.13
2022-08-04T05:04:21.296Z,97210.34
2022-08-04T05:07:11.607Z,97206.41
2022-08-04T05:09:53.467Z,97203.47
2022-08-04T05:14:32.612Z,97203.81
2022-08-04T05:15:36.916Z,97202.53
2022-08-04T05:18:10.740Z,97201.22
2022-08-04T05:20:44.993Z,97200.81
2022-08-04T05:23:17.367Z,97207.47
2022-08-04T05:25:59.580Z,97204.44
2022-08-04T05:28:31.640Z,97204.25
2022-08-04T05:31:02.966Z,97200.81
2022-08-04T05:33:36.165Z,97198.03
2022-08-04T05:36:19.058Z,97204.16
2022-08-04T05:38:55.401Z,97207.09
2022-08-04T05:41:32.181Z,97201.88
2022-08-04T05:44:13.381Z,97196.75
2022-08-04T05:46:42.734Z,97206.81
2022-08-04T05:49:16.510Z,97204.50
2022-08-04T05:51:50.649Z,97206.16
2022-08-04T05:54:21.064Z,97203.50
2022-08-04T05:56:50.925Z,97202.78
2022-08-04T05:59:20.719Z,97200.56
2022-08-04T06:01:55.652Z,97199.72
2022-08-04T06:04:29.517Z,97193.41
2022-08-04T06:06:59.012Z,97200.66
2022-08-04T06:09:27.205Z,97196.78
2022-08-04T06:12:00.482Z,97197.63
2022-08-04T06:14:35.011Z,97200.88
2022-08-04T06:17:05.995Z,97203.72
2022-08-04T06:20:17.826Z,97205.47
2022-08-04T06:22:48.567Z,97208.44
2022-08-04T06:25:20.638Z,97215.72
2022-08-04T06:27:50.484Z,97217.06
2022-08-04T06:30:19.926Z,97213.16
2022-08-04T06:33:03.443Z,97208.59
2022-08-04T06:35:34.552Z,97203.56
2022-08-04T06:38:04.566Z,97211.25
2022-08-04T06:40:34.900Z,97205.72
2022-08-04T06:43:05.555Z,97206.00
2022-08-04T06:45:36.124Z,97203.81
2022-08-04T06:48:06.218Z,97204.72
2022-08-04T06:51:24.372Z,97199.31
2022-08-04T06:53:27.204Z,97199.63
2022-08-04T06:55:56.131Z,97196.34
2022-08-04T06:58:25.747Z,97201.53
2022-08-04T07:00:55.889Z,97203.13
2022-08-04T07:03:24.029Z,97193.09
2022-08-04T07:05:52.555Z,97186.72
2022-08-04T07:08:21.767Z,97192.63
2022-08-04T07:10:54.255Z,97191.16
2022-08-04T07:13:24.402Z,97187.28
2022-08-04T07:15:53.633Z,97183.66
2022-08-04T07:18:21.675Z,97184.94
2022-08-04T07:20:50.095Z,97182.09
2022-08-04T07:23:25.095Z,97183.34
2022-08-04T07:25:59.671Z,97181.81
2022-08-04T07:28:41.306Z,97183.50
2022-08-04T07:31:34.685Z,97185.03
2022-08-04T07:34:16.676Z,97172.22
2022-08-04T07:36:55.078Z,97177.41
2022-08-04T07:39:28.031Z,97171.66
2022-08-04T07:42:01.459Z,97172.44
2022-08-04T07:44:31.953Z,97165.81
2022-08-04T07:47:01.487Z,97165.47
2022-08-04T07:49:54.224Z,97171.84
2022-08-04T07:52:18.226Z,97171.31
2022-08-04T07:54:46.795Z,97187.78
2022-08-04T07:57:29.027Z,97181.38
2022-08-04T08:00:08.788Z,97173.84
2022-08-04T08:02:43.468Z,97170.13
2022-08-04T08:05:16.715Z,97165.25
2022-08-04T08:07:51.029Z,97159.44
2022-08-04T08:10:22.815Z,97171.81
2022-08-04T08:12:53.264Z,97170.06
2022-08-04T08:15:22.171Z,97169.03
2022-08-04T08:17:59.096Z,97169.50
2022-08-04T08:20:32.796Z,97176.22
2022-08-04T08:23:02.739Z,97174.69
2022-08-04T08:25:31.930Z,97163.69
2022-08-04T08:28:03.612Z,97169.91
2022-08-04T08:30:32.874Z,97169.28
2022-08-04T08:33:03.941Z,97166.13
2022-08-04T08:35:49.921Z,97160.72
2022-08-04T08:38:30.136Z,97164.38
2022-08-04T08:41:22.138Z,97161.31
2022-08-04T08:44:29.783Z,97158.53
2022-08-04T08:47:18.410Z,97161.22
2022-08-04T08:50:17.820Z,97165.81
2022-08-04T08:53:18.022Z,97156.41
2022-08-04T08:56:02.987Z,97164.75
2022-08-04T08:58:44.214Z,97158.13
2022-08-04T09:01:30.328Z,97164.00
2022-08-04T09:04:37.087Z,97164.69
2022-08-04T09:07:22.457Z,97165.28
2022-08-04T09:10:01.503Z,97163.34
2022-08-04T09:12:34.606Z,97158.34
2022-08-04T09:15:06.593Z,97160.69
2022-08-04T09:17:42.523Z,97161.72
2022-08-04T09:20:16.449Z,97160.19
2022-08-04T09:22:50.705Z,97165.34
2022-08-04T09:25:25.295Z,97161.84
2022-08-04T09:27:55.797Z,97164.28
2022-08-04T09:30:32.354Z,97155.97
2022-08-04T09:33:13.143Z,97158.97
2022-08-04T09:35:50.011Z,97160.47
2022-08-04T09:38:28.933Z,97160.09
2022-08-04T09:41:20.835Z,97151.75
2022-08-04T09:44:51.118Z,97158.56
2022-08-04T09:46:59.692Z,97153.97
2022-08-04T09:49:35.443Z,97150.16
2022-08-04T09:52:11.116Z,97143.97
2022-08-04T09:54:47.954Z,97146.97
2022-08-04T09:57:27.780Z,97152.25
2022-08-04T10:00:02.624Z,97142.53
2022-08-04T10:02:45.319Z,97136.13
2022-08-04T10:05:18.030Z,97147.94
2022-08-04T10:08:10.901Z,97139.63
2022-08-04T10:10:55.858Z,97153.81
2022-08-04T10:13:30.290Z,97142.91
2022-08-04T10:16:21.626Z,97142.63
2022-08-04T10:19:08.222Z,97147.03
2022-08-04T10:21:59.292Z,97140.47
2022-08-04T10:24:49.684Z,97132.94
2022-08-04T10:27:26.051Z,97146.09
2022-08-04T10:29:58.778Z,97136.28
2022-08-04T10:32:34.207Z,97137.69
2022-08-04T10:35:10.730Z,97131.34
2022-08-04T10:38:00.311Z,97127.31
2022-08-04T10:40:37.465Z,97141.94
2022-08-04T10:43:20.972Z,97135.94
2022-08-04T10:45:58.062Z,97125.28
2022-08-04T10:48:37.495Z,97126.34
2022-08-04T10:51:20.116Z,97124.88
2022-08-04T10:53:55.773Z,97127.09
2022-08-04T10:56:32.995Z,97112.53
2022-08-04T10:59:05.335Z,97110.50
2022-08-04T11:02:00.549Z,97115.75
2022-08-04T11:04:32.600Z,97111.84
2022-08-04T11:07:01.737Z,97110.38
2022-08-04T11:09:34.925Z,97120.28
2022-08-04T11:12:11.381Z,97123.72
2022-08-04T11:14:48.056Z,97118.72
2022-08-04T11:17:23.442Z,97121.75
2022-08-04T11:20:24.896Z,97124.78
2022-08-04T11:22:59.496Z,97117.22
2022-08-04T11:25:35.618Z,97116.78
2022-08-04T11:28:10.476Z,97116.81
2022-08-04T11:30:43.965Z,97114.03
2022-08-04T11:33:22.948Z,97112.63
2022-08-04T11:35:59.003Z,97111.63
2022-08-04T11:38:32.980Z,97109.28
2022-08-04T11:41:11.876Z,97108.84
2022-08-04T11:43:56.183Z,97118.75
2022-08-04T11:46:38.377Z,97117.41
2022-08-04T11:49:09.460Z,97125.66
2022-08-04T11:51:38.152Z,97122.06
2022-08-04T11:54:06.459Z,97117.91
2022-08-04T11:56:38.299Z,97112.84
2022-08-04T11:59:08.733Z,97117.00
2022-08-04T12:01:48.828Z,97117.41
2022-08-04T12:04:24.125Z,97108.03
2022-08-04T12:07:21.693Z,97113.47
2022-08-04T12:09:50.899Z,97111.38
2022-08-04T12:12:29.835Z,97111.81
2022-08-04T12:15:04.935Z,97113.69
2022-08-04T12:17:52.660Z,97105.06
2022-08-04T12:20:35.652Z,97108.28
2022-08-04T12:23:17.155Z,97095.09
2022-08-04T12:25:49.240Z,97105.19
2022-08-04T12:28:26.191Z,97100.97
2022-08-04T12:31:05.281Z,97106.16
2022-08-04T12:34:05.349Z,97099.25
2022-08-04T12:36:41.647Z,97095.03
2022-08-04T12:39:13.962Z,97091.56
2022-08-04T12:41:53.916Z,97090.50
2022-08-04T12:44:37.352Z,97098.28
2022-08-04T12:47:28.198Z,97091.25
2022-08-04T12:50:03.151Z,97082.22
2022-08-04T12:53:00.267Z,97090.44
2022-08-04T12:55:28.790Z,97079.06
2022-08-04T12:57:58.418Z,97071.22
2022-08-04T13:00:40.772Z,97073.09
2022-08-04T13:03:13.317Z,97069.88
2022-08-04T13:05:43.164Z,97068.09
2022-08-04T13:08:12.675Z,97071.47
2022-08-04T13:10:43.230Z,97060.81
2022-08-04T13:13:17.962Z,97064.38
2022-08-04T13:15:58.240Z,97055.34
2022-08-04T13:18:31.876Z,97057.72
2022-08-04T13:21:19.357Z,97048.75
2022-08-04T13:24:10.382Z,97050.13
2022-08-04T13:26:55.321Z,97046.94
2022-08-04T13:30:00.645Z,97048.09
2022-08-04T13:32:22.384Z,97051.00
2022-08-04T13:34:53.750Z,97037.97
2022-08-04T13:37:26.454Z,97033.53
2022-08-04T13:39:56.829Z,97045.53
2022-08-04T13:42:27.513Z,97044.53
2022-08-04T13:44:58.314Z,97034.41
2022-08-04T13:47:31.313Z,97042.56
2022-08-04T13:50:16.423Z,97046.00
2022-08-04T13:52:45.607Z,97041.09
2022-08-04T13:55:21.690Z,97040.97
2022-08-04T13:57:54.365Z,97033.06
2022-08-04T14:00:29.480Z,97023.88
2022-08-04T14:03:23.743Z,97021.84
2022-08-04T14:06:16.270Z,97024.63
2022-08-04T14:08:51.475Z,97022.06
2022-08-04T14:12:09.243Z,97021.38
2022-08-04T14:14:16.017Z,97015.50
2022-08-04T14:17:00.154Z,97010.44
2022-08-04T14:19:36.116Z,97007.78
2022-08-04T14:22:04.761Z,97007.56
2022-08-04T14:24:32.845Z,97009.88
2022-08-04T14:27:01.495Z,97010.34
2022-08-04T14:29:39.296Z,97016.78
2022-08-04T14:32:14.506Z,97012.50
2022-08-04T14:34:46.755Z,96997.81
2022-08-04T14:37:19.722Z,96998.69
2022-08-04T14:40:08.357Z,97008.13
2022-08-04T14:42:43.962Z,96996.56
2022-08-04T14:45:12.417Z,97000.72
2022-08-04T14:47:52.469Z,96997.22
2022-08-04T14:50:34.531Z,96979.66
2022-08-04T14:53:08.028Z,96987.84
2022-08-04T14:55:36.851Z,96989.25
2022-08-04T14:58:33.800Z,96996.25
2022-08-04T15:00:55.713Z,96988.97
2022-08-04T15:03:24.519Z,96999.03
2022-08-04T15:06:01.610Z,96990.66
2022-08-04T15:08:32.454Z,96992.16
2022-08-04T15:11:02.989Z,96985.41
2022-08-04T15:13:32.530Z,96986.72
2022-08-04T15:16:07.356Z,96991.97
2022-08-04T15:18:39.170Z,96971.22
2022-08-04T15:21:09.287Z,96979.03
2022-08-04T15:23:39.608Z,96980.63
2022-08-04T15:26:12.818Z,96977.53
2022-08-04T15:28:43.397Z,96977.41
2022-08-04T15:32:04.437Z,96982.31
2022-08-04T15:34:26.619Z,96980.94
2022-08-04T15:37:02.420Z,96979.69
2022-08-04T15:39:37.132Z,96978.16
2022-08-04T15:42:21.236Z,96975.31
2022-08-04T15:45:19.041Z,96972.28
2022-08-04T15:48:32.522Z,96968.81
2022-08-04T15:51:14.311Z,96975.84
2022-08-04T15:54:23.488Z,96977.19
2022-08-04T15:57:01.501Z,96971.44
2022-08-04T16:00:00.540Z,96971.28
2022-08-04T16:02:41.041Z,96973.19
2022-08-04T16:05:39.485Z,96970.28
2022-08-04T16:08:15.860Z,96958.84
2022-08-04T16:10:46.658Z,96972.13
2022-08-04T16:13:19.458Z,96954.63
2022-08-04T16:15:50.677Z,96964.44
2022-08-04T16:18:37.314Z,96963.06
2022-08-04T16:21:07.873Z,96968.38
2022-08-04T16:23:54.932Z,96961.88
2022-08-04T16:26:45.688Z,96967.47
2022-08-04T16:29:42.818Z,96961.06
2022-08-04T16:32:20.873Z,96962.50
2022-08-04T16:35:00.840Z,96963.22
2022-08-04T16:37:33.772Z,96960.16
2022-08-04T16:40:36.594Z,96965.44
2022-08-04T16:43:09.032Z,96960.97
2022-08-04T16:45:44.365Z,96960.34
2022-08-04T16:48:13.284Z,96959.56
2022-08-04T16:51:05.015Z,96955.06
2022-08-04T16:53:52.643Z,96952.34
2022-08-04T16:56:33.020Z,96957.13
2022-08-04T16:59:08.439Z,96953.53
2022-08-04T17:01:39.024Z,96950.41
2022-08-04T17:04:07.667Z,96956.84
2022-08-04T17:06:38.267Z,96962.28
2022-08-04T17:09:10.386Z,96953.00
2022-08-04T17:11:38.443Z,96952.31
2022-08-04T17:14:06.862Z,96958.94
2022-08-04T17:16:39.071Z,96957.50
2022-08-04T17:19:24.057Z,96951.34
2022-08-04T17:22:04.914Z,96951.53
2022-08-04T17:24:35.252Z,96949.44
2022-08-04T17:29:51.957Z,96949.88
2022-08-04T17:32:23.621Z,96948.63
2022-08-04T17:34:55.097Z,96949.88
2022-08-04T17:37:40.906Z,96944.88
2022-08-04T17:40:22.509Z,96951.97
2022-08-04T17:43:03.308Z,96944.50
2022-08-04T17:46:16.230Z,96946.13
2022-08-04T17:49:05.836Z,96955.25
2022-08-04T17:52:01.990Z,96948.84
2022-08-04T17:54:36.524Z,96950.81
2022-08-04T17:57:15.560Z,96955.03
2022-08-04T17:59:55.481Z,96959.69
2022-08-04T18:02:32.380Z,96959.63
2022-08-04T18:05:07.391Z,96952.97
2022-08-04T18:08:37.881Z,96960.44
2022-08-04T18:10:52.675Z,96959.50
2022-08-04T18:13:25.724Z,96959.56
2022-08-04T18:16:02.566Z,96948.59
2022-08-04T18:18:31.170Z,96951.81
2022-08-04T18:21:02.807Z,96952.38
2022-08-04T18:26:23.753Z,96954.94
2022-08-04T18:28:52.493Z,96947.44
2022-08-04T18:31:20.357Z,96951.28
2022-08-04T18:33:57.060Z,96953.28
2022-08-04T18:36:36.788Z,96961.97
2022-08-04T18:39:13.046Z,96972.31
2022-08-04T18:42:01.870Z,96966.53
2022-08-04T18:44:32.179Z,96962.44
2022-08-04T18:47:22.135Z,96965.81
2022-08-04T18:52:45.379Z,96976.06
2022-08-04T18:55:55.163Z,96978.94
2022-08-04T19:00:51.505Z,96986.16
2022-08-04T19:03:23.045Z,96989.66
2022-08-04T19:05:51.789Z,96986.94
2022-08-04T19:08:33.887Z,96988.44
2022-08-04T19:11:28.737Z,96988.25
2022-08-04T19:13:58.029Z,96989.84
2022-08-04T19:16:27.735Z,96990.88
2022-08-04T19:18:56.656Z,96992.72
2022-08-04T19:21:58.665Z,97000.34
2022-08-04T19:24:31.180Z,97002.16
2022-08-04T19:27:07.219Z,96999.84
2022-08-04T19:29:41.392Z,96991.31
2022-08-04T19:32:14.828Z,96992.13
2022-08-04T19:34:45.973Z,96997.16
2022-08-04T19:37:20.406Z,96998.44
2022-08-04T19:40:05.716Z,96998.72
2022-08-04T19:42:34.704Z,96994.00
2022-08-04T19:45:02.822Z,96995.41
2022-08-04T19:48:12.186Z,96999.06
2022-08-04T19:50:18.805Z,96993.66
2022-08-04T19:52:51.726Z,96995.41
2022-08-04T19:55:36.709Z,97002.34
2022-08-04T19:58:07.406Z,96994.44
2022-08-04T20:00:37.348Z,96989.19
2022-08-04T20:03:11.440Z,96996.50
2022-08-04T20:05:55.160Z,96993.19
2022-08-04T20:08:24.982Z,96990.38
2022-08-04T20:10:54.882Z,96998.22
2022-08-04T20:13:30.593Z,96996.03
2022-08-04T20:16:06.419Z,96994.34
2022-08-04T20:18:56.812Z,96989.94
2022-08-04T20:21:55.574Z,96992.97
2022-08-04T20:24:39.385Z,96997.84
2022-08-04T20:27:08.818Z,96997.53
2022-08-04T20:29:40.640Z,96992.41
2022-08-04T20:32:11.864Z,96985.22
2022-08-04T20:34:44.012Z,96987.72
2022-08-04T20:37:11.935Z,96985.91
2022-08-04T20:39:43.611Z,96992.34
2022-08-04T20:42:13.313Z,96987.91
2022-08-04T20:44:46.183Z,96983.75
2022-08-04T20:47:15.100Z,96984.63
2022-08-04T20:49:43.312Z,96979.91
2022-08-04T20:52:18.112Z,96986.31
2022-08-04T20:54:49.294Z,96984.06
2022-08-04T20:57:48.042Z,96994.25
2022-08-04T21:00:14.562Z,96988.53
2022-08-04T21:02:42.427Z,96986.81
2022-08-04T21:05:12.504Z,96985.59
2022-08-04T21:07:41.750Z,96989.47
2022-08-04T21:10:11.874Z,96988.94
2022-08-04T21:12:41.163Z,96983.94
2022-08-04T21:15:13.581Z,96985.34
2022-08-04T21:20:33.229Z,96981.63
2022-08-04T21:25:56.519Z,96985.13
2022-08-04T21:28:27.382Z,96986.81
2022-08-04T21:30:55.956Z,96985.28
2022-08-04T21:33:48.982Z,96980.78
2022-08-04T21:36:19.746Z,96984.47
2022-08-04T21:38:51.555Z,96992.13
2022-08-04T21:41:24.638Z,96988.91
2022-08-04T21:43:58.758Z,96984.28
2022-08-04T21:46:27.226Z,96990.84
2022-08-04T21:48:58.310Z,96989.19
2022-08-04T21:51:59.095Z,96990.28
2022-08-04T21:54:17.511Z,96988.19
2022-08-04T21:56:50.835Z,96990.41
2022-08-04T21:59:23.559Z,96987.06
2022-08-04T22:02:01.077Z,96989.03
2022-08-04T22:04:29.552Z,96986.94
2022-08-04T22:06:57.495Z,96992.63
2022-08-04T22:09:25.386Z,96984.78
2022-08-04T22:11:56.985Z,96987.16
2022-08-04T22:14:27.624Z,96984.25
2022-08-04T22:16:58.714Z,96982.56
2022-08-04T22:19:50.054Z,96983.63
2022-08-04T22:22:24.629Z,96979.78
2022-08-04T22:24:55.401Z,96979.66
2022-08-04T22:27:47.324Z,96978.25
2022-08-04T22:30:18.790Z,96978.78
2022-08-04T22:32:48.008Z,96985.06
2022-08-04T22:35:36.063Z,96975.28
2022-08-04T22:38:21.879Z,96982.56
2022-08-04T22:40:57.972Z,96974.88
2022-08-04T22:43:31.799Z,96978.03
2022-08-04T22:46:05.176Z,96981.13
2022-08-04T22:48:35.833Z,96975.16
2022-08-04T22:51:05.491Z,96978.03
2022-08-04T22:53:33.491Z,96976.13
2022-08-04T22:56:09.445Z,96972.19
2022-08-04T22:58:45.303Z,96974.47
2022-08-04T23:01:16.142Z,96972.66
2022-08-04T23:03:55.359Z,96971.47
2022-08-04T23:06:28.512Z,96970.78
2022-08-04T23:08:57.240Z,96964.66
2022-08-04T23:11:34.573Z,96966.44
2022-08-04T23:14:04.222Z,96974.19
2022-08-04T23:16:40.593Z,96964.63
2022-08-04T23:19:15.467Z,96966.56
2022-08-04T23:21:47.355Z,96961.56
2022-08-04T23:24:29.848Z,96960.34
2022-08-04T23:26:58.009Z,96953.50
2022-08-04T23:29:27.471Z,96954.59
2022-08-04T23:32:00.119Z,96958.13
2022-08-04T23:34:30.019Z,96953.00
2022-08-04T23:36:59.061Z,96944.06
2022-08-04T23:40:03.287Z,96949.38
2022-08-04T23:42:21.190Z,96945.47
2022-08-04T23:44:49.782Z,96948.84
2022-08-04T23:48:19.451Z,96947.69
2022-08-04T23:50:07.965Z,96947.41
2022-08-04T23:52:35.874Z,96947.41
2022-08-04T23:55:03.749Z,96949.25
2022-08-04T23:58:05.612Z,96949.66
